sensor_id;sensor_type;location;lat;lon;timestamp;temperature;humidity
39931;DHT22;26635;-35.248;149.138;2023-12-22T00:00:54;20.80;56.40
39931;DHT22;26635;-35.248;149.138;2023-12-22T00:03:25;20.90;56.70
39931;DHT22;26635;-35.248;149.138;2023-12-22T00:05:55;21.10;55.50
39931;DHT22;26635;-35.248;149.138;2023-12-22T00:08:26;21.00;54.70
39931;DHT22;26635;-35.248;149.138;2023-12-22T00:10:56;21.00;55.70
39931;DHT22;26635;-35.248;149.138;2023-12-22T00:13:27;21.10;56.80
39931;DHT22;26635;-35.248;149.138;2023-12-22T00:16:02;21.30;55.00
39931;DHT22;26635;-35.248;149.138;2023-12-22T00:18:33;21.20;55.80
39931;DHT22;26635;-35.248;149.138;2023-12-22T00:21:04;21.30;53.60
39931;DHT22;26635;-35.248;149.138;2023-12-22T00:23:34;21.30;54.80
39931;DHT22;26635;-35.248;149.138;2023-12-22T00:26:08;21.50;53.60
39931;DHT22;26635;-35.248;149.138;2023-12-22T00:28:39;21.60;54.70
39931;DHT22;26635;-35.248;149.138;2023-12-22T00:31:09;21.70;55.10
39931;DHT22;26635;-35.248;149.138;2023-12-22T00:33:42;21.80;52.70
39931;DHT22;26635;-35.248;149.138;2023-12-22T00:36:13;22.00;53.90
39931;DHT22;26635;-35.248;149.138;2023-12-22T00:38:47;22.20;54.90
39931;DHT22;26635;-35.248;149.138;2023-12-22T00:41:26;22.30;52.80
39931;DHT22;26635;-35.248;149.138;2023-12-22T00:43:57;22.20;51.70
39931;DHT22;26635;-35.248;149.138;2023-12-22T00:46:27;22.20;52.90
39931;DHT22;26635;-35.248;149.138;2023-12-22T00:48:58;22.30;52.30
39931;DHT22;26635;-35.248;149.138;2023-12-22T00:51:28;22.40;53.00
39931;DHT22;26635;-35.248;149.138;2023-12-22T00:53:58;22.50;53.90
39931;DHT22;26635;-35.248;149.138;2023-12-22T00:56:30;22.60;53.00
39931;DHT22;26635;-35.248;149.138;2023-12-22T00:59:01;22.70;52.40
39931;DHT22;26635;-35.248;149.138;2023-12-22T01:01:39;22.70;52.20
39931;DHT22;26635;-35.248;149.138;2023-12-22T01:04:10;22.70;50.80
39931;DHT22;26635;-35.248;149.138;2023-12-22T01:06:40;22.70;49.80
39931;DHT22;26635;-35.248;149.138;2023-12-22T01:09:11;22.80;51.60
39931;DHT22;26635;-35.248;149.138;2023-12-22T01:11:42;23.00;51.20
39931;DHT22;26635;-35.248;149.138;2023-12-22T01:14:12;23.10;51.50
39931;DHT22;26635;-35.248;149.138;2023-12-22T01:16:43;23.10;50.60
39931;DHT22;26635;-35.248;149.138;2023-12-22T01:19:15;23.10;49.70
39931;DHT22;26635;-35.248;149.138;2023-12-22T01:21:46;23.00;49.80
39931;DHT22;26635;-35.248;149.138;2023-12-22T01:24:19;23.00;50.40
39931;DHT22;26635;-35.248;149.138;2023-12-22T01:26:52;23.10;50.90
39931;DHT22;26635;-35.248;149.138;2023-12-22T01:29:23;23.30;51.40
39931;DHT22;26635;-35.248;149.138;2023-12-22T01:31:53;23.40;51.30
39931;DHT22;26635;-35.248;149.138;2023-12-22T01:34:24;23.40;49.70
39931;DHT22;26635;-35.248;149.138;2023-12-22T01:36:55;23.40;50.00
39931;DHT22;26635;-35.248;149.138;2023-12-22T01:39:26;23.40;50.00
39931;DHT22;26635;-35.248;149.138;2023-12-22T01:41:57;23.50;49.20
39931;DHT22;26635;-35.248;149.138;2023-12-22T01:44:29;23.50;49.00
39931;DHT22;26635;-35.248;149.138;2023-12-22T01:47:00;23.60;48.00
39931;DHT22;26635;-35.248;149.138;2023-12-22T01:49:31;23.70;49.30
39931;DHT22;26635;-35.248;149.138;2023-12-22T01:52:02;23.80;50.20
39931;DHT22;26635;-35.248;149.138;2023-12-22T01:54:33;23.80;48.50
39931;DHT22;26635;-35.248;149.138;2023-12-22T01:57:04;23.90;49.10
39931;DHT22;26635;-35.248;149.138;2023-12-22T01:59:35;23.90;49.40
39931;DHT22;26635;-35.248;149.138;2023-12-22T02:02:05;24.00;50.00
39931;DHT22;26635;-35.248;149.138;2023-12-22T02:04:36;24.00;48.90
39931;DHT22;26635;-35.248;149.138;2023-12-22T02:07:06;24.00;50.10
39931;DHT22;26635;-35.248;149.138;2023-12-22T02:09:38;24.00;48.80
39931;DHT22;26635;-35.248;149.138;2023-12-22T02:12:09;23.90;48.30
39931;DHT22;26635;-35.248;149.138;2023-12-22T02:14:40;24.00;49.70
39931;DHT22;26635;-35.248;149.138;2023-12-22T02:17:26;24.10;49.00
39931;DHT22;26635;-35.248;149.138;2023-12-22T02:19:59;24.10;50.30
39931;DHT22;26635;-35.248;149.138;2023-12-22T02:22:31;24.20;50.30
39931;DHT22;26635;-35.248;149.138;2023-12-22T02:25:03;24.30;48.60
39931;DHT22;26635;-35.248;149.138;2023-12-22T02:33:29;24.50;49.70
39931;DHT22;26635;-35.248;149.138;2023-12-22T02:36:04;24.50;46.40
39931;DHT22;26635;-35.248;149.138;2023-12-22T02:38:37;24.50;47.90
39931;DHT22;26635;-35.248;149.138;2023-12-22T02:41:09;24.60;48.60
39931;DHT22;26635;-35.248;149.138;2023-12-22T02:43:40;24.80;48.30
39931;DHT22;26635;-35.248;149.138;2023-12-22T02:46:15;24.70;46.70
39931;DHT22;26635;-35.248;149.138;2023-12-22T02:48:45;24.70;46.60
39931;DHT22;26635;-35.248;149.138;2023-12-22T02:51:16;24.70;47.40
39931;DHT22;26635;-35.248;149.138;2023-12-22T02:53:46;24.70;49.20
39931;DHT22;26635;-35.248;149.138;2023-12-22T02:56:16;24.80;47.90
39931;DHT22;26635;-35.248;149.138;2023-12-22T02:58:47;24.80;46.90
39931;DHT22;26635;-35.248;149.138;2023-12-22T03:01:18;24.70;46.80
39931;DHT22;26635;-35.248;149.138;2023-12-22T03:03:49;24.80;45.60
39931;DHT22;26635;-35.248;149.138;2023-12-22T03:06:19;24.60;46.30
39931;DHT22;26635;-35.248;149.138;2023-12-22T03:09:07;24.20;48.00
39931;DHT22;26635;-35.248;149.138;2023-12-22T03:11:38;24.00;50.30
39931;DHT22;26635;-35.248;149.138;2023-12-22T03:14:08;23.80;49.60
39931;DHT22;26635;-35.248;149.138;2023-12-22T03:16:42;23.70;48.70
39931;DHT22;26635;-35.248;149.138;2023-12-22T03:19:14;23.70;49.80
39931;DHT22;26635;-35.248;149.138;2023-12-22T03:21:44;23.80;50.00
39931;DHT22;26635;-35.248;149.138;2023-12-22T03:24:15;23.70;49.30
39931;DHT22;26635;-35.248;149.138;2023-12-22T03:26:46;23.70;49.70
39931;DHT22;26635;-35.248;149.138;2023-12-22T03:29:17;24.10;48.90
39931;DHT22;26635;-35.248;149.138;2023-12-22T03:31:47;24.30;50.50
39931;DHT22;26635;-35.248;149.138;2023-12-22T03:34:17;24.60;48.00
39931;DHT22;26635;-35.248;149.138;2023-12-22T03:36:48;24.80;48.50
39931;DHT22;26635;-35.248;149.138;2023-12-22T03:39:18;24.90;48.60
39931;DHT22;26635;-35.248;149.138;2023-12-22T03:41:50;25.00;47.90
39931;DHT22;26635;-35.248;149.138;2023-12-22T03:44:20;25.00;46.70
39931;DHT22;26635;-35.248;149.138;2023-12-22T03:46:53;24.80;45.90
39931;DHT22;26635;-35.248;149.138;2023-12-22T03:49:24;24.90;47.70
39931;DHT22;26635;-35.248;149.138;2023-12-22T03:51:57;24.80;46.30
39931;DHT22;26635;-35.248;149.138;2023-12-22T03:54:28;24.60;46.70
39931;DHT22;26635;-35.248;149.138;2023-12-22T03:56:58;24.50;47.90
39931;DHT22;26635;-35.248;149.138;2023-12-22T03:59:30;24.40;47.60
39931;DHT22;26635;-35.248;149.138;2023-12-22T04:02:00;24.50;48.30
39931;DHT22;26635;-35.248;149.138;2023-12-22T04:04:32;24.50;47.90
39931;DHT22;26635;-35.248;149.138;2023-12-22T04:07:02;24.80;49.40
39931;DHT22;26635;-35.248;149.138;2023-12-22T04:09:32;24.70;46.40
39931;DHT22;26635;-35.248;149.138;2023-12-22T04:12:03;24.70;47.80
39931;DHT22;26635;-35.248;149.138;2023-12-22T04:14:35;24.60;46.80
39931;DHT22;26635;-35.248;149.138;2023-12-22T04:17:07;24.60;50.10
39931;DHT22;26635;-35.248;149.138;2023-12-22T04:19:37;24.60;47.60
39931;DHT22;26635;-35.248;149.138;2023-12-22T04:22:08;24.40;46.30
39931;DHT22;26635;-35.248;149.138;2023-12-22T04:24:38;24.30;47.30
39931;DHT22;26635;-35.248;149.138;2023-12-22T04:27:09;24.30;49.10
39931;DHT22;26635;-35.248;149.138;2023-12-22T04:29:40;24.20;48.90
39931;DHT22;26635;-35.248;149.138;2023-12-22T04:32:10;24.10;50.40
39931;DHT22;26635;-35.248;149.138;2023-12-22T04:34:41;24.00;48.90
39931;DHT22;26635;-35.248;149.138;2023-12-22T04:37:11;24.00;48.10
39931;DHT22;26635;-35.248;149.138;2023-12-22T04:39:41;24.10;48.10
39931;DHT22;26635;-35.248;149.138;2023-12-22T04:42:12;24.20;48.80
39931;DHT22;26635;-35.248;149.138;2023-12-22T04:44:43;24.20;48.90
39931;DHT22;26635;-35.248;149.138;2023-12-22T04:47:14;24.30;49.10
39931;DHT22;26635;-35.248;149.138;2023-12-22T04:49:45;24.50;48.80
39931;DHT22;26635;-35.248;149.138;2023-12-22T04:52:15;24.50;47.90
39931;DHT22;26635;-35.248;149.138;2023-12-22T04:54:46;24.40;46.80
39931;DHT22;26635;-35.248;149.138;2023-12-22T04:57:17;24.40;47.20
39931;DHT22;26635;-35.248;149.138;2023-12-22T04:59:48;24.30;47.50
39931;DHT22;26635;-35.248;149.138;2023-12-22T05:02:18;24.10;48.80
39931;DHT22;26635;-35.248;149.138;2023-12-22T05:04:50;24.20;48.00
39931;DHT22;26635;-35.248;149.138;2023-12-22T05:07:20;24.30;48.30
39931;DHT22;26635;-35.248;149.138;2023-12-22T05:09:51;24.30;48.10
39931;DHT22;26635;-35.248;149.138;2023-12-22T05:12:23;24.20;47.20
39931;DHT22;26635;-35.248;149.138;2023-12-22T05:14:53;24.10;48.60
39931;DHT22;26635;-35.248;149.138;2023-12-22T05:17:24;24.10;48.30
39931;DHT22;26635;-35.248;149.138;2023-12-22T05:19:54;24.00;48.10
39931;DHT22;26635;-35.248;149.138;2023-12-22T05:22:24;23.80;48.70
39931;DHT22;26635;-35.248;149.138;2023-12-22T05:24:57;23.80;48.80
39931;DHT22;26635;-35.248;149.138;2023-12-22T05:27:30;23.70;50.70
39931;DHT22;26635;-35.248;149.138;2023-12-22T05:30:04;23.80;49.70
39931;DHT22;26635;-35.248;149.138;2023-12-22T05:32:35;23.90;49.40
39931;DHT22;26635;-35.248;149.138;2023-12-22T05:35:06;23.90;48.10
39931;DHT22;26635;-35.248;149.138;2023-12-22T05:37:37;23.80;48.90
39931;DHT22;26635;-35.248;149.138;2023-12-22T05:40:08;23.80;49.50
39931;DHT22;26635;-35.248;149.138;2023-12-22T05:42:39;23.70;49.50
39931;DHT22;26635;-35.248;149.138;2023-12-22T05:45:10;23.70;50.50
39931;DHT22;26635;-35.248;149.138;2023-12-22T05:47:40;23.70;49.70
39931;DHT22;26635;-35.248;149.138;2023-12-22T05:50:11;23.70;49.20
39931;DHT22;26635;-35.248;149.138;2023-12-22T05:52:42;23.70;50.00
39931;DHT22;26635;-35.248;149.138;2023-12-22T05:55:16;23.80;50.10
39931;DHT22;26635;-35.248;149.138;2023-12-22T05:57:46;23.80;48.70
39931;DHT22;26635;-35.248;149.138;2023-12-22T06:00:18;23.70;48.60
39931;DHT22;26635;-35.248;149.138;2023-12-22T06:02:49;23.70;49.60
39931;DHT22;26635;-35.248;149.138;2023-12-22T06:05:20;23.60;48.70
39931;DHT22;26635;-35.248;149.138;2023-12-22T06:07:52;23.60;50.10
39931;DHT22;26635;-35.248;149.138;2023-12-22T06:10:22;23.50;50.80
39931;DHT22;26635;-35.248;149.138;2023-12-22T06:12:53;23.60;49.90
39931;DHT22;26635;-35.248;149.138;2023-12-22T06:15:23;23.60;49.30
39931;DHT22;26635;-35.248;149.138;2023-12-22T06:17:54;23.60;49.70
39931;DHT22;26635;-35.248;149.138;2023-12-22T06:20:24;23.50;50.00
39931;DHT22;26635;-35.248;149.138;2023-12-22T06:22:55;23.50;50.10
39931;DHT22;26635;-35.248;149.138;2023-12-22T06:25:26;23.40;49.30
39931;DHT22;26635;-35.248;149.138;2023-12-22T06:27:56;23.30;49.60
39931;DHT22;26635;-35.248;149.138;2023-12-22T06:30:27;23.30;49.30
39931;DHT22;26635;-35.248;149.138;2023-12-22T06:32:57;23.20;49.00
39931;DHT22;26635;-35.248;149.138;2023-12-22T06:35:28;23.10;49.50
39931;DHT22;26635;-35.248;149.138;2023-12-22T06:37:58;23.00;48.90
39931;DHT22;26635;-35.248;149.138;2023-12-22T06:40:35;23.00;49.70
39931;DHT22;26635;-35.248;149.138;2023-12-22T06:43:05;23.00;50.30
39931;DHT22;26635;-35.248;149.138;2023-12-22T06:45:36;22.90;49.80
39931;DHT22;26635;-35.248;149.138;2023-12-22T06:48:08;22.80;49.80
39931;DHT22;26635;-35.248;149.138;2023-12-22T06:50:41;22.80;50.20
39931;DHT22;26635;-35.248;149.138;2023-12-22T06:53:14;22.80;50.20
39931;DHT22;26635;-35.248;149.138;2023-12-22T06:55:53;22.80;48.80
39931;DHT22;26635;-35.248;149.138;2023-12-22T06:58:23;22.90;49.80
39931;DHT22;26635;-35.248;149.138;2023-12-22T07:00:55;22.90;49.60
39931;DHT22;26635;-35.248;149.138;2023-12-22T07:03:25;23.00;49.60
39931;DHT22;26635;-35.248;149.138;2023-12-22T07:05:57;23.10;50.30
39931;DHT22;26635;-35.248;149.138;2023-12-22T07:08:30;23.20;50.00
39931;DHT22;26635;-35.248;149.138;2023-12-22T07:11:02;23.20;49.60
39931;DHT22;26635;-35.248;149.138;2023-12-22T07:13:39;23.30;50.30
39931;DHT22;26635;-35.248;149.138;2023-12-22T07:16:12;23.40;47.60
39931;DHT22;26635;-35.248;149.138;2023-12-22T07:18:45;23.40;48.20
39931;DHT22;26635;-35.248;149.138;2023-12-22T07:21:19;23.40;47.90
39931;DHT22;26635;-35.248;149.138;2023-12-22T07:23:53;23.50;49.00
39931;DHT22;26635;-35.248;149.138;2023-12-22T07:26:24;23.60;48.60
39931;DHT22;26635;-35.248;149.138;2023-12-22T07:28:56;23.60;47.40
39931;DHT22;26635;-35.248;149.138;2023-12-22T07:31:27;23.60;48.20
39931;DHT22;26635;-35.248;149.138;2023-12-22T07:33:58;23.60;46.60
39931;DHT22;26635;-35.248;149.138;2023-12-22T07:36:28;23.40;47.80
39931;DHT22;26635;-35.248;149.138;2023-12-22T07:38:59;23.30;47.60
39931;DHT22;26635;-35.248;149.138;2023-12-22T07:41:31;23.30;49.40
39931;DHT22;26635;-35.248;149.138;2023-12-22T07:44:03;23.10;50.10
39931;DHT22;26635;-35.248;149.138;2023-12-22T07:46:35;23.00;51.10
39931;DHT22;26635;-35.248;149.138;2023-12-22T07:49:05;22.90;51.40
39931;DHT22;26635;-35.248;149.138;2023-12-22T07:51:36;22.80;51.50
39931;DHT22;26635;-35.248;149.138;2023-12-22T07:54:08;22.70;51.50
39931;DHT22;26635;-35.248;149.138;2023-12-22T07:56:40;22.60;51.90
39931;DHT22;26635;-35.248;149.138;2023-12-22T07:59:11;22.40;52.20
39931;DHT22;26635;-35.248;149.138;2023-12-22T08:01:57;22.20;52.80
39931;DHT22;26635;-35.248;149.138;2023-12-22T08:04:28;22.10;52.80
39931;DHT22;26635;-35.248;149.138;2023-12-22T08:06:58;22.00;53.30
39931;DHT22;26635;-35.248;149.138;2023-12-22T08:09:29;21.90;53.80
39931;DHT22;26635;-35.248;149.138;2023-12-22T08:11:59;21.90;53.00
39931;DHT22;26635;-35.248;149.138;2023-12-22T08:14:31;21.80;54.50
39931;DHT22;26635;-35.248;149.138;2023-12-22T08:17:01;21.80;53.20
39931;DHT22;26635;-35.248;149.138;2023-12-22T08:19:31;21.70;53.10
39931;DHT22;26635;-35.248;149.138;2023-12-22T08:22:04;21.60;53.60
39931;DHT22;26635;-35.248;149.138;2023-12-22T08:24:36;21.50;52.70
39931;DHT22;26635;-35.248;149.138;2023-12-22T08:27:08;21.30;53.30
39931;DHT22;26635;-35.248;149.138;2023-12-22T08:29:40;21.30;53.30
39931;DHT22;26635;-35.248;149.138;2023-12-22T08:32:11;21.20;53.90
39931;DHT22;26635;-35.248;149.138;2023-12-22T08:34:42;21.10;54.10
39931;DHT22;26635;-35.248;149.138;2023-12-22T08:37:14;21.00;54.50
39931;DHT22;26635;-35.248;149.138;2023-12-22T08:39:45;20.90;54.60
39931;DHT22;26635;-35.248;149.138;2023-12-22T08:42:16;20.80;54.80
39931;DHT22;26635;-35.248;149.138;2023-12-22T08:44:47;20.70;55.10
39931;DHT22;26635;-35.248;149.138;2023-12-22T08:47:18;20.60;55.10
39931;DHT22;26635;-35.248;149.138;2023-12-22T08:49:48;20.60;56.20
39931;DHT22;26635;-35.248;149.138;2023-12-22T08:52:19;20.50;55.90
39931;DHT22;26635;-35.248;149.138;2023-12-22T08:54:50;20.50;56.10
39931;DHT22;26635;-35.248;149.138;2023-12-22T08:57:21;20.40;56.50
39931;DHT22;26635;-35.248;149.138;2023-12-22T08:59:51;20.40;57.10
39931;DHT22;26635;-35.248;149.138;2023-12-22T09:02:21;20.30;57.10
39931;DHT22;26635;-35.248;149.138;2023-12-22T09:04:52;20.20;57.10
39931;DHT22;26635;-35.248;149.138;2023-12-22T09:07:23;20.20;57.60
39931;DHT22;26635;-35.248;149.138;2023-12-22T09:09:54;20.10;58.40
39931;DHT22;26635;-35.248;149.138;2023-12-22T09:12:26;20.00;59.60
39931;DHT22;26635;-35.248;149.138;2023-12-22T09:14:57;19.90;61.00
39931;DHT22;26635;-35.248;149.138;2023-12-22T09:17:28;19.80;61.50
39931;DHT22;26635;-35.248;149.138;2023-12-22T09:19:58;19.80;63.40
39931;DHT22;26635;-35.248;149.138;2023-12-22T09:22:29;19.80;64.80
39931;DHT22;26635;-35.248;149.138;2023-12-22T09:25:01;19.70;63.90
39931;DHT22;26635;-35.248;149.138;2023-12-22T09:27:34;19.60;65.00
39931;DHT22;26635;-35.248;149.138;2023-12-22T09:30:06;19.50;65.50
39931;DHT22;26635;-35.248;149.138;2023-12-22T09:32:36;19.50;66.00
39931;DHT22;26635;-35.248;149.138;2023-12-22T09:35:07;19.40;66.40
39931;DHT22;26635;-35.248;149.138;2023-12-22T09:37:37;19.40;66.90
39931;DHT22;26635;-35.248;149.138;2023-12-22T09:40:08;19.40;68.40
39931;DHT22;26635;-35.248;149.138;2023-12-22T09:42:44;19.20;68.70
39931;DHT22;26635;-35.248;149.138;2023-12-22T09:45:17;19.10;69.50
39931;DHT22;26635;-35.248;149.138;2023-12-22T09:47:51;19.00;70.00
39931;DHT22;26635;-35.248;149.138;2023-12-22T09:50:23;19.00;70.70
39931;DHT22;26635;-35.248;149.138;2023-12-22T09:52:54;18.90;71.30
39931;DHT22;26635;-35.248;149.138;2023-12-22T09:55:25;18.80;71.50
39931;DHT22;26635;-35.248;149.138;2023-12-22T09:57:58;18.70;71.50
39931;DHT22;26635;-35.248;149.138;2023-12-22T10:00:32;18.60;71.50
39931;DHT22;26635;-35.248;149.138;2023-12-22T10:03:07;18.60;72.70
39931;DHT22;26635;-35.248;149.138;2023-12-22T10:05:38;18.60;72.00
39931;DHT22;26635;-35.248;149.138;2023-12-22T10:08:12;18.50;71.50
39931;DHT22;26635;-35.248;149.138;2023-12-22T10:10:43;18.50;72.50
39931;DHT22;26635;-35.248;149.138;2023-12-22T10:13:15;18.50;72.50
39931;DHT22;26635;-35.248;149.138;2023-12-22T10:15:48;18.40;72.20
39931;DHT22;26635;-35.248;149.138;2023-12-22T10:18:21;18.30;73.20
39931;DHT22;26635;-35.248;149.138;2023-12-22T10:20:52;18.30;72.90
39931;DHT22;26635;-35.248;149.138;2023-12-22T10:23:23;18.20;73.20
39931;DHT22;26635;-35.248;149.138;2023-12-22T10:25:53;18.10;74.10
39931;DHT22;26635;-35.248;149.138;2023-12-22T10:28:28;18.10;74.30
39931;DHT22;26635;-35.248;149.138;2023-12-22T10:30:58;18.10;75.40
39931;DHT22;26635;-35.248;149.138;2023-12-22T10:33:34;18.00;75.80
39931;DHT22;26635;-35.248;149.138;2023-12-22T10:36:07;18.10;75.50
39931;DHT22;26635;-35.248;149.138;2023-12-22T10:38:37;18.00;75.50
39931;DHT22;26635;-35.248;149.138;2023-12-22T10:41:09;17.90;75.70
39931;DHT22;26635;-35.248;149.138;2023-12-22T10:43:40;17.80;75.90
39931;DHT22;26635;-35.248;149.138;2023-12-22T10:46:12;17.80;76.70
39931;DHT22;26635;-35.248;149.138;2023-12-22T10:48:43;17.80;76.90
39931;DHT22;26635;-35.248;149.138;2023-12-22T10:51:17;17.80;77.10
39931;DHT22;26635;-35.248;149.138;2023-12-22T10:53:48;17.70;76.60
39931;DHT22;26635;-35.248;149.138;2023-12-22T10:56:18;17.60;77.50
39931;DHT22;26635;-35.248;149.138;2023-12-22T10:58:51;17.70;77.80
39931;DHT22;26635;-35.248;149.138;2023-12-22T11:01:28;17.60;77.60
39931;DHT22;26635;-35.248;149.138;2023-12-22T11:04:11;17.60;78.10
39931;DHT22;26635;-35.248;149.138;2023-12-22T11:06:49;17.50;78.50
39931;DHT22;26635;-35.248;149.138;2023-12-22T11:09:22;17.50;78.00
39931;DHT22;26635;-35.248;149.138;2023-12-22T11:11:55;17.40;77.70
39931;DHT22;26635;-35.248;149.138;2023-12-22T11:14:27;17.30;78.70
39931;DHT22;26635;-35.248;149.138;2023-12-22T11:17:04;17.30;78.60
39931;DHT22;26635;-35.248;149.138;2023-12-22T11:19:39;17.30;78.30
39931;DHT22;26635;-35.248;149.138;2023-12-22T11:22:13;17.20;80.30
39931;DHT22;26635;-35.248;149.138;2023-12-22T11:24:47;17.20;79.20
39931;DHT22;26635;-35.248;149.138;2023-12-22T11:27:19;17.10;80.10
39931;DHT22;26635;-35.248;149.138;2023-12-22T11:29:51;17.10;79.10
39931;DHT22;26635;-35.248;149.138;2023-12-22T11:32:24;17.10;79.10
39931;DHT22;26635;-35.248;149.138;2023-12-22T11:34:57;17.00;79.10
39931;DHT22;26635;-35.248;149.138;2023-12-22T11:37:31;17.00;79.70
39931;DHT22;26635;-35.248;149.138;2023-12-22T11:40:03;17.00;79.70
39931;DHT22;26635;-35.248;149.138;2023-12-22T11:42:38;16.90;80.50
39931;DHT22;26635;-35.248;149.138;2023-12-22T11:45:18;16.90;79.70
39931;DHT22;26635;-35.248;149.138;2023-12-22T11:47:49;16.90;80.80
39931;DHT22;26635;-35.248;149.138;2023-12-22T11:50:31;16.80;80.00
39931;DHT22;26635;-35.248;149.138;2023-12-22T11:53:19;16.80;80.90
39931;DHT22;26635;-35.248;149.138;2023-12-22T11:56:03;16.80;81.50
39931;DHT22;26635;-35.248;149.138;2023-12-22T12:01:27;16.70;81.30
39931;DHT22;26635;-35.248;149.138;2023-12-22T12:04:05;16.70;81.00
39931;DHT22;26635;-35.248;149.138;2023-12-22T12:06:36;16.60;82.00
39931;DHT22;26635;-35.248;149.138;2023-12-22T12:09:11;16.60;81.70
39931;DHT22;26635;-35.248;149.138;2023-12-22T12:14:32;16.50;81.80
39931;DHT22;26635;-35.248;149.138;2023-12-22T12:17:07;16.50;82.20
39931;DHT22;26635;-35.248;149.138;2023-12-22T12:19:41;16.40;82.00
39931;DHT22;26635;-35.248;149.138;2023-12-22T12:22:15;16.40;82.90
39931;DHT22;26635;-35.248;149.138;2023-12-22T12:24:45;16.40;82.20
39931;DHT22;26635;-35.248;149.138;2023-12-22T12:27:20;16.40;83.20
39931;DHT22;26635;-35.248;149.138;2023-12-22T12:29:52;16.40;83.30
39931;DHT22;26635;-35.248;149.138;2023-12-22T12:32:24;16.30;83.10
39931;DHT22;26635;-35.248;149.138;2023-12-22T12:34:59;16.30;83.20
39931;DHT22;26635;-35.248;149.138;2023-12-22T12:37:31;16.20;83.20
39931;DHT22;26635;-35.248;149.138;2023-12-22T12:40:03;16.20;84.30
39931;DHT22;26635;-35.248;149.138;2023-12-22T12:42:36;16.20;83.50
39931;DHT22;26635;-35.248;149.138;2023-12-22T12:45:08;16.10;84.30
39931;DHT22;26635;-35.248;149.138;2023-12-22T12:47:41;16.10;83.50
39931;DHT22;26635;-35.248;149.138;2023-12-22T12:50:11;16.10;84.50
39931;DHT22;26635;-35.248;149.138;2023-12-22T12:52:41;16.10;85.50
39931;DHT22;26635;-35.248;149.138;2023-12-22T12:55:12;16.00;84.80
39931;DHT22;26635;-35.248;149.138;2023-12-22T12:57:42;15.90;85.10
39931;DHT22;26635;-35.248;149.138;2023-12-22T13:00:17;15.90;85.80
39931;DHT22;26635;-35.248;149.138;2023-12-22T13:03:00;15.80;85.60
39931;DHT22;26635;-35.248;149.138;2023-12-22T13:05:35;15.80;85.90
39931;DHT22;26635;-35.248;149.138;2023-12-22T13:08:12;15.80;85.50
39931;DHT22;26635;-35.248;149.138;2023-12-22T13:11:00;15.70;86.20
39931;DHT22;26635;-35.248;149.138;2023-12-22T13:13:43;15.70;87.00
39931;DHT22;26635;-35.248;149.138;2023-12-22T13:16:19;15.70;86.30
39931;DHT22;26635;-35.248;149.138;2023-12-22T13:18:52;15.60;86.40
39931;DHT22;26635;-35.248;149.138;2023-12-22T13:21:23;15.60;86.60
39931;DHT22;26635;-35.248;149.138;2023-12-22T13:26:42;15.60;86.10
39931;DHT22;26635;-35.248;149.138;2023-12-22T13:29:14;15.60;86.40
39931;DHT22;26635;-35.248;149.138;2023-12-22T13:31:45;15.60;86.90
39931;DHT22;26635;-35.248;149.138;2023-12-22T13:34:15;15.60;87.10
39931;DHT22;26635;-35.248;149.138;2023-12-22T13:36:47;15.60;86.70
39931;DHT22;26635;-35.248;149.138;2023-12-22T13:39:18;15.60;86.90
39931;DHT22;26635;-35.248;149.138;2023-12-22T13:41:48;15.60;86.60
39931;DHT22;26635;-35.248;149.138;2023-12-22T13:44:18;15.60;86.10
39931;DHT22;26635;-35.248;149.138;2023-12-22T13:46:49;15.50;87.30
39931;DHT22;26635;-35.248;149.138;2023-12-22T13:49:20;15.50;87.60
39931;DHT22;26635;-35.248;149.138;2023-12-22T13:51:50;15.50;87.90
39931;DHT22;26635;-35.248;149.138;2023-12-22T13:54:21;15.50;87.20
39931;DHT22;26635;-35.248;149.138;2023-12-22T13:57:03;15.50;88.10
39931;DHT22;26635;-35.248;149.138;2023-12-22T13:59:34;15.40;88.00
39931;DHT22;26635;-35.248;149.138;2023-12-22T14:02:04;15.40;87.50
39931;DHT22;26635;-35.248;149.138;2023-12-22T14:04:35;15.30;87.90
39931;DHT22;26635;-35.248;149.138;2023-12-22T14:07:05;15.30;87.50
39931;DHT22;26635;-35.248;149.138;2023-12-22T14:09:36;15.20;88.80
39931;DHT22;26635;-35.248;149.138;2023-12-22T14:12:10;15.20;88.40
39931;DHT22;26635;-35.248;149.138;2023-12-22T14:14:47;15.20;89.40
39931;DHT22;26635;-35.248;149.138;2023-12-22T14:17:19;15.20;88.90
39931;DHT22;26635;-35.248;149.138;2023-12-22T14:19:50;15.10;88.80
39931;DHT22;26635;-35.248;149.138;2023-12-22T14:22:20;15.10;89.00
39931;DHT22;26635;-35.248;149.138;2023-12-22T14:24:52;15.10;88.80
39931;DHT22;26635;-35.248;149.138;2023-12-22T14:27:26;15.10;89.60
39931;DHT22;26635;-35.248;149.138;2023-12-22T14:29:59;15.00;89.70
39931;DHT22;26635;-35.248;149.138;2023-12-22T14:32:30;15.00;90.00
39931;DHT22;26635;-35.248;149.138;2023-12-22T14:35:00;15.00;90.40
39931;DHT22;26635;-35.248;149.138;2023-12-22T14:37:33;14.90;90.30
39931;DHT22;26635;-35.248;149.138;2023-12-22T14:40:06;14.90;90.00
39931;DHT22;26635;-35.248;149.138;2023-12-22T14:42:37;14.90;90.90
39931;DHT22;26635;-35.248;149.138;2023-12-22T14:45:07;14.80;90.40
39931;DHT22;26635;-35.248;149.138;2023-12-22T14:47:38;14.80;90.00
39931;DHT22;26635;-35.248;149.138;2023-12-22T14:50:09;14.80;90.50
39931;DHT22;26635;-35.248;149.138;2023-12-22T14:52:39;14.80;90.30
39931;DHT22;26635;-35.248;149.138;2023-12-22T14:55:10;14.80;90.70
39931;DHT22;26635;-35.248;149.138;2023-12-22T14:57:40;14.70;90.80
39931;DHT22;26635;-35.248;149.138;2023-12-22T15:00:12;14.70;90.70
39931;DHT22;26635;-35.248;149.138;2023-12-22T15:02:43;14.70;91.00
39931;DHT22;26635;-35.248;149.138;2023-12-22T15:05:13;14.60;90.50
39931;DHT22;26635;-35.248;149.138;2023-12-22T15:07:46;14.60;90.90
39931;DHT22;26635;-35.248;149.138;2023-12-22T15:10:17;14.60;90.90
39931;DHT22;26635;-35.248;149.138;2023-12-22T15:12:48;14.50;91.10
39931;DHT22;26635;-35.248;149.138;2023-12-22T15:15:20;14.50;91.00
39931;DHT22;26635;-35.248;149.138;2023-12-22T15:17:50;14.50;91.50
39931;DHT22;26635;-35.248;149.138;2023-12-22T15:20:21;14.40;91.50
39931;DHT22;26635;-35.248;149.138;2023-12-22T15:22:51;14.40;91.40
39931;DHT22;26635;-35.248;149.138;2023-12-22T15:25:22;14.40;91.60
39931;DHT22;26635;-35.248;149.138;2023-12-22T15:27:52;14.40;91.50
39931;DHT22;26635;-35.248;149.138;2023-12-22T15:30:23;14.40;91.40